sensor_id;sensor_type;location;lat;lon;timestamp;P1;durP1;ratioP1;P2;durP2;ratioP2
37529;SDS011;23374;52.758;6.872;2022-10-16T00:01:52;7.13;;;1.40;;
37529;SDS011;23374;52.758;6.872;2022-10-16T00:04:12;5.07;;;1.57;;
37529;SDS011;23374;52.758;6.872;2022-10-16T00:06:33;3.97;;;1.70;;
37529;SDS011;23374;52.758;6.872;2022-10-16T00:08:53;4.70;;;1.90;;
37529;SDS011;23374;52.758;6.872;2022-10-16T00:11:20;4.33;;;1.80;;
37529;SDS011;23374;52.758;6.872;2022-10-16T00:13:43;5.67;;;2.07;;
37529;SDS011;23374;52.758;6.872;2022-10-16T00:16:05;3.53;;;1.40;;
37529;SDS011;23374;52.758;6.872;2022-10-16T00:18:27;4.43;;;1.57;;
37529;SDS011;23374;52.758;6.872;2022-10-16T00:20:49;2.87;;;1.57;;
37529;SDS011;23374;52.758;6.872;2022-10-16T00:23:09;7.23;;;1.67;;
37529;SDS011;23374;52.758;6.872;2022-10-16T00:25:30;2.10;;;1.50;;
37529;SDS011;23374;52.758;6.872;2022-10-16T00:27:52;1.90;;;1.50;;
37529;SDS011;23374;52.758;6.872;2022-10-16T00:30:12;3.50;;;1.40;;
37529;SDS011;23374;52.758;6.872;2022-10-16T00:32:32;3.70;;;1.60;;
37529;SDS011;23374;52.758;6.872;2022-10-16T00:34:53;4.03;;;1.73;;
37529;SDS011;23374;52.758;6.872;2022-10-16T00:37:15;2.53;;;1.50;;
37529;SDS011;23374;52.758;6.872;2022-10-16T00:39:35;4.20;;;1.53;;
37529;SDS011;23374;52.758;6.872;2022-10-16T00:41:56;3.07;;;1.67;;
37529;SDS011;23374;52.758;6.872;2022-10-16T00:44:42;2.40;;;1.47;;
37529;SDS011;23374;52.758;6.872;2022-10-16T00:47:31;5.17;;;1.63;;
37529;SDS011;23374;52.758;6.872;2022-10-16T00:53:05;4.37;;;1.70;;
37529;SDS011;23374;52.758;6.872;2022-10-16T00:55:25;6.17;;;1.63;;
37529;SDS011;23374;52.758;6.872;2022-10-16T00:57:49;4.70;;;1.33;;
37529;SDS011;23374;52.758;6.872;2022-10-16T01:00:14;2.90;;;1.40;;
37529;SDS011;23374;52.758;6.872;2022-10-16T01:02:38;5.53;;;1.80;;
37529;SDS011;23374;52.758;6.872;2022-10-16T01:04:58;3.87;;;1.20;;
37529;SDS011;23374;52.758;6.872;2022-10-16T01:07:38;3.43;;;1.53;;
37529;SDS011;23374;52.758;6.872;2022-10-16T01:28:13;1.97;;;1.23;;
37529;SDS011;23374;52.758;6.872;2022-10-16T01:30:35;7.90;;;1.90;;
37529;SDS011;23374;52.758;6.872;2022-10-16T01:33:05;6.33;;;1.70;;
37529;SDS011;23374;52.758;6.872;2022-10-16T01:35:40;3.13;;;1.40;;
37529;SDS011;23374;52.758;6.872;2022-10-16T01:40:56;2.57;;;1.50;;
37529;SDS011;23374;52.758;6.872;2022-10-16T01:43:28;3.30;;;1.83;;
37529;SDS011;23374;52.758;6.872;2022-10-16T01:45:59;2.80;;;1.40;;
37529;SDS011;23374;52.758;6.872;2022-10-16T01:48:21;7.77;;;1.50;;
37529;SDS011;23374;52.758;6.872;2022-10-16T01:50:44;5.47;;;1.70;;
37529;SDS011;23374;52.758;6.872;2022-10-16T01:53:18;3.00;;;1.63;;
37529;SDS011;23374;52.758;6.872;2022-10-16T01:55:42;3.03;;;1.63;;
37529;SDS011;23374;52.758;6.872;2022-10-16T01:58:07;3.07;;;1.47;;
37529;SDS011;23374;52.758;6.872;2022-10-16T02:00:28;3.77;;;1.50;;
37529;SDS011;23374;52.758;6.872;2022-10-16T02:02:51;2.37;;;1.53;;
37529;SDS011;23374;52.758;6.872;2022-10-16T02:05:20;3.80;;;1.80;;
37529;SDS011;23374;52.758;6.872;2022-10-16T02:07:58;5.80;;;1.80;;
37529;SDS011;23374;52.758;6.872;2022-10-16T02:10:19;4.93;;;1.53;;
37529;SDS011;23374;52.758;6.872;2022-10-16T02:12:41;4.53;;;1.40;;
37529;SDS011;23374;52.758;6.872;2022-10-16T02:15:10;1.80;;;1.37;;
37529;SDS011;23374;52.758;6.872;2022-10-16T02:17:31;2.10;;;1.57;;
37529;SDS011;23374;52.758;6.872;2022-10-16T02:19:53;2.60;;;1.70;;
37529;SDS011;23374;52.758;6.872;2022-10-16T02:22:39;3.23;;;1.63;;
37529;SDS011;23374;52.758;6.872;2022-10-16T02:25:10;2.40;;;1.50;;
37529;SDS011;23374;52.758;6.872;2022-10-16T02:27:55;3.40;;;1.63;;
37529;SDS011;23374;52.758;6.872;2022-10-16T02:30:33;2.53;;;1.50;;
37529;SDS011;23374;52.758;6.872;2022-10-16T02:33:00;4.63;;;1.90;;
37529;SDS011;23374;52.758;6.872;2022-10-16T02:35:24;4.57;;;1.53;;
37529;SDS011;23374;52.758;6.872;2022-10-16T02:37:47;4.77;;;1.30;;
37529;SDS011;23374;52.758;6.872;2022-10-16T02:40:10;5.00;;;1.47;;
37529;SDS011;23374;52.758;6.872;2022-10-16T02:42:36;5.80;;;1.50;;
37529;SDS011;23374;52.758;6.872;2022-10-16T02:44:58;3.37;;;1.27;;
37529;SDS011;23374;52.758;6.872;2022-10-16T02:47:19;3.53;;;1.30;;
37529;SDS011;23374;52.758;6.872;2022-10-16T02:49:39;2.23;;;1.67;;
37529;SDS011;23374;52.758;6.872;2022-10-16T02:51:59;7.27;;;1.30;;
37529;SDS011;23374;52.758;6.872;2022-10-16T02:54:20;2.70;;;1.33;;
37529;SDS011;23374;52.758;6.872;2022-10-16T02:56:40;3.13;;;1.40;;
37529;SDS011;23374;52.758;6.872;2022-10-16T02:59:00;6.87;;;1.20;;
37529;SDS011;23374;52.758;6.872;2022-10-16T03:01:21;3.93;;;1.60;;
37529;SDS011;23374;52.758;6.872;2022-10-16T03:03:41;6.17;;;1.63;;
37529;SDS011;23374;52.758;6.872;2022-10-16T03:06:02;2.57;;;1.60;;
37529;SDS011;23374;52.758;6.872;2022-10-16T03:08:22;4.23;;;1.30;;
37529;SDS011;23374;52.758;6.872;2022-10-16T03:10:44;2.23;;;1.40;;
37529;SDS011;23374;52.758;6.872;2022-10-16T03:13:05;3.67;;;1.30;;
37529;SDS011;23374;52.758;6.872;2022-10-16T03:15:25;3.77;;;1.67;;
37529;SDS011;23374;52.758;6.872;2022-10-16T03:17:47;3.20;;;1.80;;
37529;SDS011;23374;52.758;6.872;2022-10-16T03:20:08;2.07;;;1.43;;
37529;SDS011;23374;52.758;6.872;2022-10-16T03:22:28;4.70;;;1.50;;
37529;SDS011;23374;52.758;6.872;2022-10-16T03:24:49;3.57;;;1.60;;
37529;SDS011;23374;52.758;6.872;2022-10-16T03:27:09;2.33;;;1.37;;
37529;SDS011;23374;52.758;6.872;2022-10-16T03:29:30;2.03;;;1.57;;
37529;SDS011;23374;52.758;6.872;2022-10-16T03:31:51;2.37;;;1.50;;
37529;SDS011;23374;52.758;6.872;2022-10-16T03:34:12;4.00;;;1.40;;
37529;SDS011;23374;52.758;6.872;2022-10-16T03:36:32;4.10;;;1.80;;
37529;SDS011;23374;52.758;6.872;2022-10-16T03:38:53;4.13;;;1.40;;
37529;SDS011;23374;52.758;6.872;2022-10-16T03:41:13;5.77;;;1.80;;
37529;SDS011;23374;52.758;6.872;2022-10-16T03:43:33;5.03;;;1.80;;
37529;SDS011;23374;52.758;6.872;2022-10-16T03:45:54;6.90;;;1.87;;
37529;SDS011;23374;52.758;6.872;2022-10-16T03:48:14;6.03;;;1.73;;
37529;SDS011;23374;52.758;6.872;2022-10-16T03:50:34;4.30;;;1.53;;
37529;SDS011;23374;52.758;6.872;2022-10-16T03:52:54;2.30;;;1.57;;
37529;SDS011;23374;52.758;6.872;2022-10-16T03:55:14;3.10;;;2.07;;
37529;SDS011;23374;52.758;6.872;2022-10-16T03:57:34;7.33;;;1.97;;
37529;SDS011;23374;52.758;6.872;2022-10-16T03:59:55;3.10;;;1.90;;
37529;SDS011;23374;52.758;6.872;2022-10-16T04:02:15;4.37;;;1.83;;
37529;SDS011;23374;52.758;6.872;2022-10-16T04:04:35;3.13;;;2.00;;
37529;SDS011;23374;52.758;6.872;2022-10-16T04:06:56;3.33;;;1.70;;
37529;SDS011;23374;52.758;6.872;2022-10-16T04:09:16;3.23;;;2.13;;
37529;SDS011;23374;52.758;6.872;2022-10-16T04:11:36;3.93;;;2.00;;
37529;SDS011;23374;52.758;6.872;2022-10-16T04:13:57;2.90;;;1.90;;
37529;SDS011;23374;52.758;6.872;2022-10-16T04:16:17;3.00;;;2.00;;
37529;SDS011;23374;52.758;6.872;2022-10-16T04:18:37;5.17;;;2.30;;
37529;SDS011;23374;52.758;6.872;2022-10-16T04:21:03;5.37;;;2.20;;
37529;SDS011;23374;52.758;6.872;2022-10-16T04:23:24;5.50;;;2.47;;
37529;SDS011;23374;52.758;6.872;2022-10-16T04:25:44;4.20;;;2.33;;
37529;SDS011;23374;52.758;6.872;2022-10-16T04:28:04;5.53;;;2.43;;
37529;SDS011;23374;52.758;6.872;2022-10-16T04:30:25;3.03;;;1.90;;
37529;SDS011;23374;52.758;6.872;2022-10-16T04:32:49;3.37;;;2.10;;
37529;SDS011;23374;52.758;6.872;2022-10-16T04:35:10;3.47;;;2.40;;
37529;SDS011;23374;52.758;6.872;2022-10-16T04:37:30;3.73;;;2.10;;
37529;SDS011;23374;52.758;6.872;2022-10-16T04:39:51;5.00;;;2.37;;
37529;SDS011;23374;52.758;6.872;2022-10-16T04:42:15;5.77;;;2.60;;
37529;SDS011;23374;52.758;6.872;2022-10-16T04:44:35;3.07;;;2.00;;
37529;SDS011;23374;52.758;6.872;2022-10-16T04:46:55;3.90;;;2.03;;
37529;SDS011;23374;52.758;6.872;2022-10-16T04:49:16;5.13;;;2.43;;
37529;SDS011;23374;52.758;6.872;2022-10-16T04:51:36;4.37;;;2.40;;
37529;SDS011;23374;52.758;6.872;2022-10-16T04:53:57;4.57;;;2.33;;
37529;SDS011;23374;52.758;6.872;2022-10-16T04:56:17;4.13;;;2.17;;
37529;SDS011;23374;52.758;6.872;2022-10-16T04:58:38;4.23;;;2.50;;
37529;SDS011;23374;52.758;6.872;2022-10-16T05:00:58;5.23;;;2.43;;
37529;SDS011;23374;52.758;6.872;2022-10-16T05:03:18;4.77;;;2.67;;
37529;SDS011;23374;52.758;6.872;2022-10-16T05:05:42;4.40;;;2.50;;
37529;SDS011;23374;52.758;6.872;2022-10-16T05:08:04;5.03;;;2.53;;
37529;SDS011;23374;52.758;6.872;2022-10-16T05:10:24;5.83;;;2.67;;
37529;SDS011;23374;52.758;6.872;2022-10-16T05:12:46;5.07;;;3.27;;
37529;SDS011;23374;52.758;6.872;2022-10-16T05:15:07;5.53;;;2.33;;
37529;SDS011;23374;52.758;6.872;2022-10-16T05:17:28;4.40;;;2.60;;
37529;SDS011;23374;52.758;6.872;2022-10-16T05:19:49;3.80;;;2.47;;
37529;SDS011;23374;52.758;6.872;2022-10-16T05:22:09;6.53;;;2.27;;
37529;SDS011;23374;52.758;6.872;2022-10-16T05:24:29;3.70;;;2.17;;
37529;SDS011;23374;52.758;6.872;2022-10-16T05:26:50;4.00;;;2.23;;
37529;SDS011;23374;52.758;6.872;2022-10-16T05:29:11;6.87;;;2.27;;
37529;SDS011;23374;52.758;6.872;2022-10-16T05:31:31;3.60;;;2.10;;
37529;SDS011;23374;52.758;6.872;2022-10-16T05:33:52;3.30;;;1.87;;
37529;SDS011;23374;52.758;6.872;2022-10-16T05:36:20;4.00;;;2.47;;
37529;SDS011;23374;52.758;6.872;2022-10-16T05:38:42;5.93;;;2.60;;
37529;SDS011;23374;52.758;6.872;2022-10-16T05:41:03;3.77;;;2.33;;
37529;SDS011;23374;52.758;6.872;2022-10-16T05:43:24;5.13;;;2.13;;
37529;SDS011;23374;52.758;6.872;2022-10-16T05:45:59;4.20;;;2.37;;
37529;SDS011;23374;52.758;6.872;2022-10-16T05:48:21;5.60;;;2.60;;
37529;SDS011;23374;52.758;6.872;2022-10-16T05:50:42;3.37;;;2.50;;
37529;SDS011;23374;52.758;6.872;2022-10-16T05:53:02;3.20;;;2.20;;
37529;SDS011;23374;52.758;6.872;2022-10-16T05:55:22;2.60;;;1.90;;
37529;SDS011;23374;52.758;6.872;2022-10-16T05:57:43;6.27;;;2.00;;
37529;SDS011;23374;52.758;6.872;2022-10-16T06:00:04;3.00;;;2.10;;
37529;SDS011;23374;52.758;6.872;2022-10-16T06:02:24;3.80;;;1.90;;
37529;SDS011;23374;52.758;6.872;2022-10-16T06:04:45;6.87;;;1.90;;
37529;SDS011;23374;52.758;6.872;2022-10-16T06:07:05;5.47;;;2.00;;
37529;SDS011;23374;52.758;6.872;2022-10-16T06:09:25;3.00;;;2.03;;
37529;SDS011;23374;52.758;6.872;2022-10-16T06:11:46;3.10;;;1.47;;
37529;SDS011;23374;52.758;6.872;2022-10-16T06:14:06;4.10;;;2.27;;
37529;SDS011;23374;52.758;6.872;2022-10-16T06:16:28;3.27;;;1.87;;
37529;SDS011;23374;52.758;6.872;2022-10-16T06:18:53;6.20;;;2.10;;
37529;SDS011;23374;52.758;6.872;2022-10-16T06:21:24;4.33;;;1.90;;
37529;SDS011;23374;52.758;6.872;2022-10-16T06:23:46;3.10;;;2.00;;
37529;SDS011;23374;52.758;6.872;2022-10-16T06:26:08;3.93;;;2.20;;
37529;SDS011;23374;52.758;6.872;2022-10-16T06:28:29;2.97;;;1.90;;
37529;SDS011;23374;52.758;6.872;2022-10-16T06:30:58;3.00;;;1.70;;
37529;SDS011;23374;52.758;6.872;2022-10-16T06:33:20;4.93;;;1.90;;
37529;SDS011;23374;52.758;6.872;2022-10-16T06:35:40;5.00;;;1.87;;
37529;SDS011;23374;52.758;6.872;2022-10-16T06:38:00;3.60;;;1.80;;
37529;SDS011;23374;52.758;6.872;2022-10-16T06:40:20;2.40;;;2.00;;
37529;SDS011;23374;52.758;6.872;2022-10-16T06:42:41;3.43;;;1.90;;
37529;SDS011;23374;52.758;6.872;2022-10-16T06:45:04;5.43;;;1.73;;
37529;SDS011;23374;52.758;6.872;2022-10-16T06:47:25;3.87;;;2.10;;
37529;SDS011;23374;52.758;6.872;2022-10-16T06:49:45;4.63;;;2.00;;
37529;SDS011;23374;52.758;6.872;2022-10-16T06:52:06;5.00;;;1.83;;
37529;SDS011;23374;52.758;6.872;2022-10-16T06:54:26;3.63;;;1.70;;
37529;SDS011;23374;52.758;6.872;2022-10-16T06:56:46;3.33;;;1.90;;
37529;SDS011;23374;52.758;6.872;2022-10-16T06:59:06;2.43;;;1.60;;
37529;SDS011;23374;52.758;6.872;2022-10-16T07:01:27;3.00;;;1.63;;
37529;SDS011;23374;52.758;6.872;2022-10-16T07:03:48;2.63;;;1.60;;
37529;SDS011;23374;52.758;6.872;2022-10-16T07:06:11;3.87;;;1.80;;
37529;SDS011;23374;52.758;6.872;2022-10-16T07:08:38;3.77;;;1.70;;
37529;SDS011;23374;52.758;6.872;2022-10-16T07:11:04;4.50;;;1.97;;
37529;SDS011;23374;52.758;6.872;2022-10-16T07:13:28;3.47;;;2.10;;
37529;SDS011;23374;52.758;6.872;2022-10-16T07:15:48;3.13;;;1.80;;
37529;SDS011;23374;52.758;6.872;2022-10-16T07:18:09;2.93;;;1.60;;
37529;SDS011;23374;52.758;6.872;2022-10-16T07:20:29;2.87;;;1.60;;
37529;SDS011;23374;52.758;6.872;2022-10-16T07:22:50;7.93;;;2.20;;
37529;SDS011;23374;52.758;6.872;2022-10-16T07:25:10;2.87;;;1.73;;
37529;SDS011;23374;52.758;6.872;2022-10-16T07:27:31;2.50;;;1.53;;
37529;SDS011;23374;52.758;6.872;2022-10-16T07:29:51;3.50;;;2.10;;
37529;SDS011;23374;52.758;6.872;2022-10-16T07:32:11;6.40;;;1.80;;
37529;SDS011;23374;52.758;6.872;2022-10-16T07:34:31;3.03;;;1.97;;
37529;SDS011;23374;52.758;6.872;2022-10-16T07:36:51;3.07;;;1.70;;
37529;SDS011;23374;52.758;6.872;2022-10-16T07:39:12;3.43;;;1.43;;
37529;SDS011;23374;52.758;6.872;2022-10-16T07:41:32;6.03;;;1.90;;
37529;SDS011;23374;52.758;6.872;2022-10-16T07:43:56;3.23;;;1.93;;
37529;SDS011;23374;52.758;6.872;2022-10-16T07:46:20;6.20;;;1.50;;
37529;SDS011;23374;52.758;6.872;2022-10-16T07:48:42;2.43;;;1.60;;
37529;SDS011;23374;52.758;6.872;2022-10-16T07:51:06;3.43;;;1.80;;
37529;SDS011;23374;52.758;6.872;2022-10-16T07:53:27;2.87;;;1.70;;
37529;SDS011;23374;52.758;6.872;2022-10-16T07:55:48;2.27;;;1.70;;
37529;SDS011;23374;52.758;6.872;2022-10-16T07:58:08;4.37;;;1.60;;
37529;SDS011;23374;52.758;6.872;2022-10-16T08:00:29;5.20;;;1.97;;
37529;SDS011;23374;52.758;6.872;2022-10-16T08:02:49;4.80;;;1.73;;
37529;SDS011;23374;52.758;6.872;2022-10-16T08:05:09;4.00;;;1.70;;
37529;SDS011;23374;52.758;6.872;2022-10-16T08:07:30;2.40;;;1.23;;
37529;SDS011;23374;52.758;6.872;2022-10-16T08:09:51;6.63;;;1.30;;
37529;SDS011;23374;52.758;6.872;2022-10-16T08:12:12;5.73;;;1.47;;
37529;SDS011;23374;52.758;6.872;2022-10-16T08:14:32;3.00;;;1.40;;
37529;SDS011;23374;52.758;6.872;2022-10-16T08:16:53;5.23;;;1.70;;
37529;SDS011;23374;52.758;6.872;2022-10-16T08:19:13;2.60;;;1.37;;
37529;SDS011;23374;52.758;6.872;2022-10-16T08:21:35;2.47;;;1.33;;
37529;SDS011;23374;52.758;6.872;2022-10-16T08:23:55;3.20;;;1.60;;
37529;SDS011;23374;52.758;6.872;2022-10-16T08:26:16;1.47;;;1.00;;
37529;SDS011;23374;52.758;6.872;2022-10-16T08:28:37;3.30;;;1.20;;
37529;SDS011;23374;52.758;6.872;2022-10-16T08:31:31;2.27;;;1.10;;
37529;SDS011;23374;52.758;6.872;2022-10-16T08:33:51;1.77;;;1.13;;
37529;SDS011;23374;52.758;6.872;2022-10-16T08:36:12;2.57;;;1.30;;
37529;SDS011;23374;52.758;6.872;2022-10-16T08:38:33;3.60;;;1.40;;
37529;SDS011;23374;52.758;6.872;2022-10-16T08:40:57;4.93;;;1.40;;
37529;SDS011;23374;52.758;6.872;2022-10-16T08:44:07;1.80;;;1.40;;
37529;SDS011;23374;52.758;6.872;2022-10-16T08:47:13;4.23;;;1.40;;
37529;SDS011;23374;52.758;6.872;2022-10-16T08:49:59;3.57;;;1.60;;
37529;SDS011;23374;52.758;6.872;2022-10-16T08:52:32;4.37;;;1.50;;
37529;SDS011;23374;52.758;6.872;2022-10-16T08:54:55;1.87;;;1.17;;
37529;SDS011;23374;52.758;6.872;2022-10-16T08:57:19;4.00;;;1.47;;
37529;SDS011;23374;52.758;6.872;2022-10-16T08:59:41;3.30;;;1.40;;
37529;SDS011;23374;52.758;6.872;2022-10-16T09:02:01;4.87;;;1.50;;
37529;SDS011;23374;52.758;6.872;2022-10-16T09:04:58;3.40;;;1.60;;
37529;SDS011;23374;52.758;6.872;2022-10-16T09:07:46;2.53;;;1.40;;
37529;SDS011;23374;52.758;6.872;2022-10-16T09:10:33;1.90;;;1.40;;
37529;SDS011;23374;52.758;6.872;2022-10-16T09:16:54;2.00;;;1.27;;
37529;SDS011;23374;52.758;6.872;2022-10-16T09:19:27;1.43;;;0.87;;
37529;SDS011;23374;52.758;6.872;2022-10-16T09:21:53;3.87;;;1.30;;
37529;SDS011;23374;52.758;6.872;2022-10-16T09:24:20;3.00;;;1.20;;
37529;SDS011;23374;52.758;6.872;2022-10-16T09:26:43;1.47;;;0.80;;
37529;SDS011;23374;52.758;6.872;2022-10-16T09:29:04;8.10;;;1.37;;
37529;SDS011;23374;52.758;6.872;2022-10-16T09:31:25;2.13;;;1.00;;
37529;SDS011;23374;52.758;6.872;2022-10-16T09:33:48;3.67;;;1.17;;
37529;SDS011;23374;52.758;6.872;2022-10-16T09:36:13;4.77;;;1.03;;
37529;SDS011;23374;52.758;6.872;2022-10-16T09:38:35;5.77;;;1.00;;
37529;SDS011;23374;52.758;6.872;2022-10-16T09:40:57;4.00;;;1.33;;
37529;SDS011;23374;52.758;6.872;2022-10-16T09:44:02;4.27;;;0.90;;
37529;SDS011;23374;52.758;6.872;2022-10-16T09:46:35;3.73;;;1.20;;
37529;SDS011;23374;52.758;6.872;2022-10-16T09:49:00;3.53;;;0.93;;
37529;SDS011;23374;52.758;6.872;2022-10-16T09:51:30;5.30;;;1.07;;
37529;SDS011;23374;52.758;6.872;2022-10-16T09:54:13;2.77;;;1.13;;
37529;SDS011;23374;52.758;6.872;2022-10-16T09:56:35;3.07;;;0.80;;
37529;SDS011;23374;52.758;6.872;2022-10-16T09:59:00;9.63;;;1.07;;
37529;SDS011;23374;52.758;6.872;2022-10-16T10:01:43;3.70;;;1.10;;
37529;SDS011;23374;52.758;6.872;2022-10-16T10:04:12;3.40;;;1.10;;
37529;SDS011;23374;52.758;6.872;2022-10-16T10:06:34;2.77;;;0.77;;
37529;SDS011;23374;52.758;6.872;2022-10-16T10:09:04;5.00;;;0.83;;
37529;SDS011;23374;52.758;6.872;2022-10-16T10:11:54;7.40;;;0.80;;
37529;SDS011;23374;52.758;6.872;2022-10-16T10:14:32;2.80;;;0.87;;
37529;SDS011;23374;52.758;6.872;2022-10-16T10:17:12;3.77;;;1.10;;
37529;SDS011;23374;52.758;6.872;2022-10-16T10:20:00;3.87;;;0.80;;
37529;SDS011;23374;52.758;6.872;2022-10-16T10:22:42;8.87;;;1.27;;
37529;SDS011;23374;52.758;6.872;2022-10-16T10:26:36;5.07;;;1.10;;
37529;SDS011;23374;52.758;6.872;2022-10-16T10:32:33;4.13;;;1.17;;
37529;SDS011;23374;52.758;6.872;2022-10-16T10:39:12;7.10;;;1.37;;
37529;SDS011;23374;52.758;6.872;2022-10-16T10:42:09;5.47;;;1.10;;
37529;SDS011;23374;52.758;6.872;2022-10-16T10:44:54;4.37;;;1.03;;
37529;SDS011;23374;52.758;6.872;2022-10-16T10:59:02;3.30;;;0.97;;
37529;SDS011;23374;52.758;6.872;2022-10-16T11:02:34;5.17;;;1.30;;
37529;SDS011;23374;52.758;6.872;2022-10-16T11:07:39;5.03;;;1.10;;
37529;SDS011;23374;52.758;6.872;2022-10-16T11:10:13;3.20;;;1.10;;
37529;SDS011;23374;52.758;6.872;2022-10-16T11:12:40;5.57;;;1.23;;
37529;SDS011;23374;52.758;6.872;2022-10-16T11:15:31;6.30;;;1.40;;
37529;SDS011;23374;52.758;6.872;2022-10-16T11:21:07;4.57;;;1.03;;
37529;SDS011;23374;52.758;6.872;2022-10-16T11:23:45;2.57;;;0.90;;
37529;SDS011;23374;52.758;6.872;2022-10-16T11:26:23;4.17;;;1.30;;
37529;SDS011;23374;52.758;6.872;2022-10-16T11:28:53;9.63;;;1.50;;
37529;SDS011;23374;52.758;6.872;2022-10-16T11:31:38;1.77;;;0.80;;
37529;SDS011;23374;52.758;6.872;2022-10-16T11:34:48;8.13;;;1.57;;
37529;SDS011;23374;52.758;6.872;2022-10-16T11:37:38;6.07;;;1.47;;
37529;SDS011;23374;52.758;6.872;2022-10-16T11:40:11;4.43;;;1.23;;
37529;SDS011;23374;52.758;6.872;2022-10-16T11:42:54;6.17;;;1.10;;
37529;SDS011;23374;52.758;6.872;2022-10-16T11:45:42;3.77;;;1.00;;
37529;SDS011;23374;52.758;6.872;2022-10-16T11:48:51;3.43;;;0.97;;
37529;SDS011;23374;52.758;6.872;2022-10-16T11:51:31;5.67;;;1.37;;
37529;SDS011;23374;52.758;6.872;2022-10-16T11:58:26;6.63;;;1.13;;
37529;SDS011;23374;52.758;6.872;2022-10-16T12:01:17;3.13;;;0.90;;
37529;SDS011;23374;52.758;6.872;2022-10-16T12:04:53;5.43;;;1.17;;
37529;SDS011;23374;52.758;6.872;2022-10-16T12:07:29;4.97;;;0.83;;
37529;SDS011;23374;52.758;6.872;2022-10-16T12:09:56;5.60;;;1.27;;
37529;SDS011;23374;52.758;6.872;2022-10-16T12:12:28;10.43;;;1.30;;
37529;SDS011;23374;52.758;6.872;2022-10-16T12:15:15;6.97;;;1.20;;
37529;SDS011;23374;52.758;6.872;2022-10-16T12:17:43;5.80;;;1.07;;
37529;SDS011;23374;52.758;6.872;2022-10-16T12:21:04;4.87;;;0.90;;
37529;SDS011;23374;52.758;6.872;2022-10-16T12:23:26;4.83;;;1.30;;
37529;SDS011;23374;52.758;6.872;2022-10-16T12:25:54;3.83;;;0.73;;
37529;SDS011;23374;52.758;6.872;2022-10-16T12:28:21;4.50;;;1.00;;
37529;SDS011;23374;52.758;6.872;2022-10-16T12:30:53;5.57;;;1.10;;
37529;SDS011;23374;52.758;6.872;2022-10-16T12:33:32;4.37;;;0.87;;
37529;SDS011;23374;52.758;6.872;2022-10-16T12:35:53;4.90;;;1.00;;
37529;SDS011;23374;52.758;6.872;2022-10-16T12:38:26;3.87;;;0.97;;
37529;SDS011;23374;52.758;6.872;2022-10-16T12:41:05;7.83;;;1.20;;
37529;SDS011;23374;52.758;6.872;2022-10-16T12:43:42;7.07;;;1.10;;
37529;SDS011;23374;52.758;6.872;2022-10-16T12:46:52;5.00;;;1.10;;
37529;SDS011;23374;52.758;6.872;2022-10-16T12:49:37;5.17;;;1.03;;
37529;SDS011;23374;52.758;6.872;2022-10-16T12:51:58;2.80;;;0.90;;
37529;SDS011;23374;52.758;6.872;2022-10-16T12:54:29;5.60;;;1.13;;
37529;SDS011;23374;52.758;6.872;2022-10-16T13:04:58;5.00;;;1.13;;
37529;SDS011;23374;52.758;6.872;2022-10-16T13:08:05;7.20;;;1.10;;
37529;SDS011;23374;52.758;6.872;2022-10-16T13:26:17;5.33;;;1.07;;
37529;SDS011;23374;52.758;6.872;2022-10-16T13:28:46;6.07;;;1.27;;
37529;SDS011;23374;52.758;6.872;2022-10-16T13:31:13;5.03;;;0.90;;
37529;SDS011;23374;52.758;6.872;2022-10-16T13:33:39;4.63;;;0.93;;
37529;SDS011;23374;52.758;6.872;2022-10-16T13:36:03;3.30;;;1.00;;
37529;SDS011;23374;52.758;6.872;2022-10-16T13:38:29;11.23;;;1.23;;
37529;SDS011;23374;52.758;6.872;2022-10-16T13:40:57;4.00;;;0.90;;
37529;SDS011;23374;52.758;6.872;2022-10-16T13:43:34;2.47;;;1.20;;
37529;SDS011;23374;52.758;6.872;2022-10-16T13:46:02;3.00;;;0.87;;
37529;SDS011;23374;52.758;6.872;2022-10-16T13:48:32;4.97;;;1.00;;
37529;SDS011;23374;52.758;6.872;2022-10-16T13:51:04;2.23;;;0.90;;
37529;SDS011;23374;52.758;6.872;2022-10-16T13:53:36;3.33;;;1.07;;
37529;SDS011;23374;52.758;6.872;2022-10-16T13:55:56;3.97;;;1.37;;
37529;SDS011;23374;52.758;6.872;2022-10-16T13:58:17;3.40;;;0.87;;
37529;SDS011;23374;52.758;6.872;2022-10-16T14:00:38;3.97;;;0.90;;
37529;SDS011;23374;52.758;6.872;2022-10-16T14:03:04;4.70;;;0.93;;
37529;SDS011;23374;52.758;6.872;2022-10-16T14:05:27;9.67;;;1.00;;
37529;SDS011;23374;52.758;6.872;2022-10-16T14:07:49;5.00;;;1.10;;
37529;SDS011;23374;52.758;6.872;2022-10-16T14:10:23;7.40;;;1.00;;
37529;SDS011;23374;52.758;6.872;2022-10-16T14:14:11;3.63;;;1.20;;
37529;SDS011;23374;52.758;6.872;2022-10-16T14:16:32;6.07;;;0.93;;
37529;SDS011;23374;52.758;6.872;2022-10-16T14:18:57;4.40;;;1.20;;
37529;SDS011;23374;52.758;6.872;2022-10-16T14:21:21;4.87;;;1.10;;
37529;SDS011;23374;52.758;6.872;2022-10-16T14:23:42;5.20;;;1.10;;
37529;SDS011;23374;52.758;6.872;2022-10-16T14:26:14;4.13;;;1.00;;
37529;SDS011;23374;52.758;6.872;2022-10-16T14:28:36;3.13;;;1.00;;
37529;SDS011;23374;52.758;6.872;2022-10-16T14:31:01;6.07;;;1.50;;
37529;SDS011;23374;52.758;6.872;2022-10-16T14:33:35;5.10;;;1.20;;
37529;SDS011;23374;52.758;6.872;2022-10-16T14:36:29;3.87;;;1.00;;
37529;SDS011;23374;52.758;6.872;2022-10-16T14:41:49;3.70;;;0.90;;
37529;SDS011;23374;52.758;6.872;2022-10-16T14:44:11;5.80;;;1.20;;
37529;SDS011;23374;52.758;6.872;2022-10-16T14:46:36;4.73;;;1.10;;
37529;SDS011;23374;52.758;6.872;2022-10-16T14:49:14;6.33;;;1.10;;
37529;SDS011;23374;52.758;6.872;2022-10-16T14:51:41;4.83;;;1.30;;
37529;SDS011;23374;52.758;6.872;2022-10-16T14:54:04;8.47;;;1.63;;
37529;SDS011;23374;52.758;6.872;2022-10-16T14:56:26;3.93;;;1.23;;
37529;SDS011;23374;52.758;6.872;2022-10-16T14:58:51;4.07;;;1.00;;
37529;SDS011;23374;52.758;6.872;2022-10-16T15:01:11;4.43;;;1.03;;
37529;SDS011;23374;52.758;6.872;2022-10-16T15:03:32;6.67;;;1.40;;
37529;SDS011;23374;52.758;6.872;2022-10-16T15:05:52;7.97;;;1.50;;
37529;SDS011;23374;52.758;6.872;2022-10-16T15:08:12;2.50;;;1.10;;
37529;SDS011;23374;52.758;6.872;2022-10-16T15:10:35;2.97;;;1.23;;
37529;SDS011;23374;52.758;6.872;2022-10-16T15:13:00;4.40;;;1.10;;
37529;SDS011;23374;52.758;6.872;2022-10-16T15:17:12;4.63;;;1.00;;
37529;SDS011;23374;52.758;6.872;2022-10-16T15:19:33;3.87;;;1.00;;
37529;SDS011;23374;52.758;6.872;2022-10-16T15:21:54;4.30;;;1.20;;
37529;SDS011;23374;52.758;6.872;2022-10-16T15:24:14;2.83;;;0.90;;
37529;SDS011;23374;52.758;6.872;2022-10-16T15:26:35;6.57;;;1.50;;
37529;SDS011;23374;52.758;6.872;2022-10-16T15:28:55;5.43;;;1.37;;
37529;SDS011;23374;52.758;6.872;2022-10-16T15:31:16;8.33;;;1.70;;
37529;SDS011;23374;52.758;6.872;2022-10-16T15:33:37;5.50;;;1.27;;
37529;SDS011;23374;52.758;6.872;2022-10-16T15:35:57;2.53;;;1.23;;
37529;SDS011;23374;52.758;6.872;2022-10-16T15:38:19;4.93;;;1.03;;
37529;SDS011;23374;52.758;6.872;2022-10-16T15:40:41;5.43;;;1.30;;
37529;SDS011;23374;52.758;6.872;2022-10-16T15:43:01;4.97;;;1.07;;
37529;SDS011;23374;52.758;6.872;2022-10-16T15:45:22;5.77;;;1.60;;
37529;SDS011;23374;52.758;6.872;2022-10-16T15:47:42;7.43;;;1.47;;
37529;SDS011;23374;52.758;6.872;2022-10-16T15:50:04;7.07;;;1.50;;
37529;SDS011;23374;52.758;6.872;2022-10-16T15:52:25;3.87;;;1.40;;
37529;SDS011;23374;52.758;6.872;2022-10-16T15:54:45;1.87;;;1.10;;
37529;SDS011;23374;52.758;6.872;2022-10-16T15:57:06;7.40;;;1.43;;
37529;SDS011;23374;52.758;6.872;2022-10-16T15:59:26;3.53;;;1.20;;
37529;SDS011;23374;52.758;6.872;2022-10-16T16:01:46;6.13;;;1.30;;
37529;SDS011;23374;52.758;6.872;2022-10-16T16:04:06;3.73;;;1.13;;
37529;SDS011;23374;52.758;6.872;2022-10-16T16:06:27;1.37;;;1.10;;
37529;SDS011;23374;52.758;6.872;2022-10-16T16:08:48;6.87;;;1.50;;
37529;SDS011;23374;52.758;6.872;2022-10-16T16:11:10;5.60;;;1.97;;
37529;SDS011;23374;52.758;6.872;2022-10-16T16:13:33;4.27;;;1.67;;